Latest Coastal Weather Observations for Noarlunga

IDS60701

Issued at 7:35 am CDT Tuesday 21 October 2014 (issued every 10 minutes, with the page automatically refreshed every 10 minutes)

About coastal observations | Map of coastal stations | Coastal observations for SA | Marine services | Other Formats
Station Details ID: 023885 Name: NOARLUNGA Lat: -35.16 Lon: 138.51 Height: 55.0 m
Data from the previous 72 hours. | See also: Recent months at Noarlunga
Date/Time
CDT
Temp

°C
Wind Pressure Rain
since 9am
mm
Weather Cloud Vis
km
Sea
Height
m
Swell
Dir
 
Speed
knots
Gust
knots
hPa Trend Height
m
Period
s
Dir
21/07:30am 22.7 NW 0 0 - - 0.0 - - - - - - -
21/07:00am 21.6 N 1 3 - - 0.0 - - - - - - -
21/06:30am 22.8 ENE 5 7 - - 0.0 - - - - - - -
21/06:00am 22.8 NNE 2 5 - - 0.0 - - - - - - -
21/05:30am 23.4 ENE 10 15 - - 0.0 - - - - - - -
21/05:00am 23.6 ENE 9 14 - - 0.0 - - - - - - -
21/04:30am 23.9 ENE 11 16 - - 0.0 - - - - - - -
21/04:00am 24.3 ENE 12 17 - - 0.0 - - - - - - -
21/03:30am 24.3 ENE 12 17 - - 0.0 - - - - - - -
21/03:00am 24.4 ENE 12 19 - - 0.0 - - - - - - -
21/02:30am 24.0 ENE 12 18 - - 0.0 - - - - - - -
21/02:00am 23.8 ENE 13 21 - - 0.0 - - - - - - -
21/01:30am 23.9 E 14 23 - - 0.0 - - - - - - -
21/01:00am 24.1 E 13 21 - - 0.0 - - - - - - -
21/12:30am 24.1 E 13 21 - - 0.0 - - - - - - -
21/12:00am 23.7 E 12 21 - - 0.0 - - - - - - -
 
Date/Time
CDT
Temp

°C
Wind Pressure Rain
since 9am
mm
Weather Cloud Vis
km
Sea
Height
m
Swell
Dir
 
Speed
knots
Gust
knots
hPa Trend Height
m
Period
s
Dir
20/11:30pm 24.4 E 13 19 - - 0.0 - - - - - - -
20/11:00pm 24.6 E 13 22 - - 0.0 - - - - - - -
20/10:30pm 24.7 E 11 19 - - 0.0 - - - - - - -
20/10:00pm 24.8 E 13 22 - - 0.0 - - - - - - -
20/09:30pm 24.7 E 11 19 - - 0.0 - - - - - - -
20/09:00pm 24.0 E 14 22 - - 0.0 - - - - - - -
20/08:30pm 23.9 E 16 22 - - 0.0 - - - - - - -
20/08:00pm 23.3 ESE 14 20 - - 0.0 - - - - - - -
20/07:30pm 23.7 ESE 12 19 - - 0.0 - - - - - - -
20/07:00pm 24.2 ESE 14 21 - - 0.0 - - - - - - -
20/06:30pm 25.1 ESE 15 21 - - 0.0 - - - - - - -
20/06:00pm 26.7 ESE 13 22 - - 0.0 - - - - - - -
20/05:30pm 28.5 ESE 14 20 - - 0.0 - - - - - - -
20/05:00pm 29.2 ESE 13 19 - - 0.0 - - - - - - -
20/04:30pm 29.4 ESE 12 19 - - 0.0 - - - - - - -
20/04:00pm 30.0 ESE 13 18 - - 0.0 - - - - - - -
20/03:30pm 29.8 ESE 13 18 - - 0.0 - - - - - - -
20/03:00pm 30.1 E 11 18 - - 0.0 - - - - - - -
20/02:30pm 29.7 E 11 17 - - 0.0 - - - - - - -
20/02:00pm 28.5 E 12 18 - - 0.0 - - - - - - -
20/01:30pm 27.9 E 10 14 - - 0.0 - - - - - - -
20/01:00pm 26.6 E 11 15 - - 0.0 - - - - - - -
20/12:30pm 26.0 E 11 16 - - 0.0 - - - - - - -
20/12:00pm 24.9 E 8 17 - - 0.0 - - - - - - -
20/11:30am 23.3 E 11 17 - - 0.0 - - - - - - -
20/11:00am 22.2 E 11 17 - - 0.0 - - - - - - -
20/10:30am 20.6 E 12 18 - - 0.0 - - - - - - -
20/10:00am 19.4 E 11 20 - - 0.0 - - - - - - -
20/09:30am 18.0 E 10 24 - - 0.0 - - - - - - -
20/09:00am 16.3 E 11 22 - - 0.0 - - - - - - -
20/08:30am 15.3 E 11 23 - - 0.0 - - - - - - -
20/08:00am 14.6 E 12 20 - - 0.0 - - - - - - -
20/07:30am 13.6 E 10 19 - - 0.0 - - - - - - -
20/07:00am 13.2 E 11 21 - - 0.0 - - - - - - -
20/06:30am 12.9 E 17 27 - - 0.0 - - - - - - -
20/06:00am 12.9 ESE 19 33 - - 0.0 - - - - - - -
20/05:36am 13.1 ESE 19 32 - - 0.0 - - - - - - -
20/05:30am 13.1 ESE 19 29 - - 0.0 - - - - - - -
20/05:17am 13.2 ESE 21 33 - - 0.0 - - - - - - -
20/05:00am 13.3 ESE 18 27 - - 0.0 - - - - - - -
20/04:30am 13.6 ESE 18 30 - - 0.0 - - - - - - -
20/04:00am 13.7 ESE 20 34 - - 0.0 - - - - - - -
20/03:30am 13.8 ESE 21 32 - - 0.0 - - - - - - -
20/03:01am 14.0 ESE 19 29 - - 0.0 - - - - - - -
20/03:00am 14.0 ESE 20 29 - - 0.0 - - - - - - -
20/02:30am 14.2 ESE 19 33 - - 0.0 - - - - - - -
20/02:00am 14.3 ESE 23 33 - - 0.0 - - - - - - -
20/01:30am 14.5 ESE 21 32 - - 0.0 - - - - - - -
20/01:19am 14.5 ESE 23 33 - - 0.0 - - - - - - -
20/01:00am 14.7 ESE 22 29 - - 0.0 - - - - - - -
20/12:30am 14.8 ESE 19 30 - - 0.0 - - - - - - -
20/12:00am 15.1 ESE 24 34 - - 0.0 - - - - - - -
 
Date/Time
CDT
Temp

°C
Wind Pressure Rain
since 9am
mm
Weather Cloud Vis
km
Sea
Height
m
Swell
Dir
 
Speed
knots
Gust
knots
hPa Trend Height
m
Period
s
Dir
19/11:44pm 15.1 ESE 24 34 - - 0.0 - - - - - - -
19/11:30pm 15.1 ESE 24 33 - - 0.0 - - - - - - -
19/11:05pm 15.1 ESE 20 30 - - 0.0 - - - - - - -
19/11:00pm 15.1 ESE 21 29 - - 0.0 - - - - - - -
19/10:47pm 15.1 ESE 21 31 - - 0.0 - - - - - - -
19/10:30pm 15.1 ESE 22 30 - - 0.0 - - - - - - -
19/10:09pm 15.2 ESE 21 32 - - 0.0 - - - - - - -
19/10:00pm 15.1 ESE 22 30 - - 0.0 - - - - - - -
19/09:30pm 15.7 ESE 20 29 - - 0.0 - - - - - - -
19/09:28pm 15.7 ESE 19 29 - - 0.0 - - - - - - -
19/09:00pm 15.1 SE 20 27 - - 0.0 - - - - - - -
19/08:35pm 16.3 SE 17 28 - - 0.0 - - - - - - -
19/08:30pm 16.9 ESE 17 24 - - 0.0 - - - - - - -
19/08:00pm 15.9 ESE 16 22 - - 0.0 - - - - - - -
19/07:30pm 15.5 SE 17 24 - - 0.0 - - - - - - -
19/07:00pm 16.5 SE 19 27 - - 0.0 - - - - - - -
19/06:30pm 17.3 SE 19 26 - - 0.0 - - - - - - -
19/06:09pm 18.4 SE 19 29 - - 0.0 - - - - - - -
19/06:00pm 18.9 SE 19 26 - - 0.0 - - - - - - -
19/05:30pm 20.5 SE 17 26 - - 0.0 - - - - - - -
19/05:00pm 22.9 SE 14 21 - - 0.0 - - - - - - -
19/04:30pm 25.3 SSE 15 20 - - 0.0 - - - - - - -
19/04:00pm 28.5 SW 7 10 - - 0.0 - - - - - - -
19/03:30pm 29.7 SW 5 8 - - 0.0 - - - - - - -
19/03:00pm 28.9 SSW 4 6 - - 0.0 - - - - - - -
19/02:30pm 28.8 SSW 5 8 - - 0.0 - - - - - - -
19/02:00pm 29.4 SW 5 10 - - 0.0 - - - - - - -
19/01:30pm 27.3 SW 5 10 - - 0.0 - - - - - - -
19/01:00pm 25.7 WSW 4 8 - - 0.0 - - - - - - -
19/12:30pm 28.5 NNW 9 13 - - 0.0 - - - - - - -
19/12:00pm 29.7 NNW 8 12 - - 0.0 - - - - - - -
19/11:30am 27.9 N 11 16 - - 0.0 - - - - - - -
19/11:00am 27.9 N 12 17 - - 0.0 - - - - - - -
19/10:30am 26.4 N 14 19 - - 0.0 - - - - - - -
19/10:00am 26.9 N 12 19 - - 0.0 - - - - - - -
19/09:30am 26.2 N 12 18 - - 0.0 - - - - - - -
19/09:00am 25.4 N 11 17 - - 0.0 - - - - - - -
19/08:30am 23.6 N 9 14 - - 0.0 - - - - - - -
19/08:00am 23.5 N 11 15 - - 0.0 - - - - - - -
19/07:30am 23.5 N 9 13 - - 0.0 - - - - - - -
19/07:00am 23.4 N 11 16 - - 0.0 - - - - - - -
19/06:30am 23.1 N 11 15 - - 0.0 - - - - - - -
19/06:00am 23.4 NNE 10 16 - - 0.0 - - - - - - -
19/05:30am 23.4 NNE 10 16 - - 0.0 - - - - - - -
19/05:00am 22.6 NNE 8 11 - - 0.0 - - - - - - -
19/04:30am 22.1 NNE 9 12 - - 0.0 - - - - - - -
19/04:00am 21.9 NNE 9 13 - - 0.0 - - - - - - -
19/03:30am 21.8 NE 11 14 - - 0.0 - - - - - - -
19/03:00am 21.3 NE 10 13 - - 0.0 - - - - - - -
19/02:30am 21.1 NNE 8 10 - - 0.0 - - - - - - -
19/02:00am 19.8 NE 6 8 - - 0.0 - - - - - - -
19/01:30am 20.7 ENE 5 6 - - 0.0 - - - - - - -
19/01:00am 20.8 ENE 6 7 - - 0.0 - - - - - - -
19/12:30am 20.2 E 4 7 - - 0.0 - - - - - - -
19/12:00am 19.9 E 3 5 - - 0.0 - - - - - - -
 
Date/Time
CDT
Temp

°C
Wind Pressure Rain
since 9am
mm
Weather Cloud Vis
km
Sea
Height
m
Swell
Dir
 
Speed
knots
Gust
knots
hPa Trend Height
m
Period
s
Dir
18/11:30pm 20.4 ENE 3 4 - - 0.0 - - - - - - -
18/11:00pm 20.9 ESE 4 7 - - 0.0 - - - - - - -
18/10:30pm 21.9 E 4 5 - - 0.0 - - - - - - -
18/10:00pm 22.1 E 3 4 - - 0.0 - - - - - - -
18/09:30pm 22.1 E 4 6 - - 0.0 - - - - - - -
18/09:00pm 22.2 E 3 4 - - 0.0 - - - - - - -
18/08:30pm 22.6 ESE 1 3 - - 0.0 - - - - - - -
18/08:00pm 23.2 SSE 2 4 - - 0.0 - - - - - - -
18/07:30pm 24.2 SSW 4 8 - - 0.0 - - - - - - -
18/07:00pm 27.6 N 5 6 - - 0.0 - - - - - - -
18/06:30pm 28.2 N 6 8 - - 0.0 - - - - - - -
18/06:00pm 29.6 NNW 5 8 - - 0.0 - - - - - - -
18/05:30pm 30.3 NNW 6 10 - - 0.0 - - - - - - -
18/05:00pm 29.9 NW 7 10 - - 0.0 - - - - - - -
18/04:30pm 30.4 NNW 10 14 - - 0.0 - - - - - - -
18/04:00pm 30.5 NW 9 15 - - 0.0 - - - - - - -
18/03:30pm 30.1 NNW 12 17 - - 0.0 - - - - - - -
18/03:00pm 29.4 NNW 11 17 - - 0.0 - - - - - - -
18/02:30pm 30.6 NNW 12 17 - - 0.0 - - - - - - -
18/02:00pm 29.9 NNW 12 20 - - 0.0 - - - - - - -
18/01:30pm 28.2 NNW 13 19 - - 0.0 - - - - - - -
18/01:00pm 28.6 N 14 23 - - 0.0 - - - - - - -
18/12:42pm 28.9 N 15 25 - - 0.0 - - - - - - -
18/12:30pm 28.7 N 16 22 - - 0.0 - - - - - - -
18/12:00pm 27.2 N 19 25 - - 0.0 - - - - - - -
18/11:36am 27.7 N 16 26 - - 0.0 - - - - - - -
18/11:30am 27.8 N 19 26 - - 0.0 - - - - - - -
18/11:20am 27.0 N 19 30 - - 0.0 - - - - - - -
18/11:00am 26.9 N 19 27 - - 0.0 - - - - - - -
18/10:31am 27.5 N 16 26 - - 0.0 - - - - - - -
18/10:30am 27.4 N 17 26 - - 0.0 - - - - - - -
18/10:12am 26.9 N 15 26 - - 0.0 - - - - - - -
18/10:00am 27.1 N 13 23 - - 0.0 - - - - - - -
18/09:30am 25.8 N 12 17 - - 0.0 - - - - - - -
18/09:00am 24.6 NNE 12 18 - - 0.0 - - - - - - -
18/08:30am 23.6 N 13 19 - - 0.0 - - - - - - -
18/08:00am 23.1 N 12 20 - - 0.0 - - - - - - -

Other Formats:

Comma delimited format used in spreadsheet applications
http://www.bom.gov.au/fwo/IDS60701/IDS60701.94808.axf

JavaScript Object Notation format (JSON) in row-major order
http://www.bom.gov.au/fwo/IDS60701/IDS60701.94808.json